createdAt,value
2022-08-08T00:01:11.699Z,0
2022-08-08T00:02:50.724Z,0
2022-08-08T00:03:57.438Z,0
2022-08-08T00:05:00.423Z,0
2022-08-08T00:07:15.425Z,0
2022-08-08T00:08:18.758Z,0
2022-08-08T00:10:30.739Z,0
2022-08-08T00:12:12.400Z,0
2022-08-08T00:15:05.438Z,0
2022-08-08T00:16:11.610Z,0
2022-08-08T00:18:04.619Z,0
2022-08-08T00:19:09.976Z,0
2022-08-08T00:20:19.204Z,0
2022-08-08T00:21:44.525Z,0
2022-08-08T00:22:53.587Z,0
2022-08-08T00:25:08.829Z,0
2022-08-08T00:26:30.573Z,0
2022-08-08T00:27:42.375Z,0
2022-08-08T00:28:46.033Z,0
2022-08-08T00:29:48.756Z,0
2022-08-08T00:32:40.041Z,0
2022-08-08T00:34:27.291Z,0
2022-08-08T00:35:48.904Z,0
2022-08-08T00:38:02.017Z,0
2022-08-08T00:41:18.082Z,0
2022-08-08T00:43:40.479Z,0
2022-08-08T00:45:33.122Z,0
2022-08-08T00:47:00.275Z,0
2022-08-08T00:48:35.268Z,0
2022-08-08T00:50:00.384Z,0
2022-08-08T00:51:09.957Z,0
2022-08-08T00:52:40.691Z,0
2022-08-08T00:54:28.847Z,0
2022-08-08T00:56:02.102Z,0
2022-08-08T00:57:06.016Z,0
2022-08-08T00:58:17.275Z,0
2022-08-08T00:59:50.900Z,0
2022-08-08T01:04:08.774Z,0
2022-08-08T01:06:03.622Z,0
2022-08-08T01:07:12.158Z,0
2022-08-08T01:08:30.974Z,0
2022-08-08T01:09:50.409Z,0
2022-08-08T01:10:54.258Z,0
2022-08-08T01:11:58.429Z,0
2022-08-08T01:14:18.864Z,0
2022-08-08T01:16:02.398Z,0
2022-08-08T01:17:08.151Z,0
2022-08-08T01:18:56.106Z,0
2022-08-08T01:20:13.775Z,0
2022-08-08T01:22:37.758Z,0
2022-08-08T01:24:19.811Z,0
2022-08-08T01:25:47.350Z,0
2022-08-08T01:26:58.185Z,0
2022-08-08T01:29:07.060Z,0
2022-08-08T01:30:11.068Z,0
2022-08-08T01:32:24.228Z,0
2022-08-08T01:34:02.936Z,0
2022-08-08T01:35:14.568Z,0
2022-08-08T01:36:18.697Z,0
2022-08-08T01:38:00.351Z,0
2022-08-08T01:40:20.851Z,0
2022-08-08T01:41:38.020Z,0
2022-08-08T01:42:42.544Z,0
2022-08-08T01:43:46.681Z,0
2022-08-08T01:44:56.182Z,0
2022-08-08T01:46:03.502Z,0
2022-08-08T01:48:36.064Z,0
2022-08-08T01:49:40.642Z,0
2022-08-08T01:50:53.131Z,0
2022-08-08T01:56:37.174Z,0
2022-08-08T01:58:15.053Z,0
2022-08-08T01:59:21.465Z,0
2022-08-08T02:02:42.583Z,0
2022-08-08T02:04:02.658Z,0
2022-08-08T02:05:08.216Z,0
2022-08-08T02:06:44.736Z,0
2022-08-08T02:07:54.802Z,0
2022-08-08T02:08:57.969Z,0
2022-08-08T02:10:46.306Z,0
2022-08-08T02:12:05.109Z,0
2022-08-08T02:13:57.011Z,0
2022-08-08T02:15:04.708Z,0
2022-08-08T02:16:08.334Z,0
2022-08-08T02:17:42.776Z,0
2022-08-08T02:19:10.176Z,0
2022-08-08T02:21:23.821Z,0
2022-08-08T02:22:52.736Z,0
2022-08-08T02:24:00.598Z,0
2022-08-08T02:25:17.851Z,0
2022-08-08T02:26:24.028Z,0
2022-08-08T02:27:44.535Z,0
2022-08-08T02:29:59.026Z,0
2022-08-08T02:32:06.095Z,0
2022-08-08T02:34:00.822Z,0
2022-08-08T02:36:23.880Z,0
2022-08-08T02:38:00.170Z,0
2022-08-08T02:40:04.565Z,0
2022-08-08T02:42:12.712Z,0
2022-08-08T02:45:01.008Z,0
2022-08-08T02:46:24.957Z,0
2022-08-08T02:47:38.050Z,0
2022-08-08T02:48:49.204Z,0
2022-08-08T02:49:54.146Z,0
2022-08-08T02:50:59.519Z,0
2022-08-08T02:52:53.439Z,0
2022-08-08T02:54:01.731Z,0
2022-08-08T02:55:21.348Z,0
2022-08-08T02:57:52.958Z,0
2022-08-08T02:58:56.738Z,0
2022-08-08T03:00:47.030Z,0
2022-08-08T03:01:58.915Z,0
2022-08-08T03:03:02.388Z,0
2022-08-08T03:05:12.439Z,0
2022-08-08T03:06:37.050Z,0
2022-08-08T03:08:02.030Z,0
2022-08-08T03:09:06.833Z,0
2022-08-08T03:10:54.345Z,0
2022-08-08T03:12:15.154Z,0
2022-08-08T03:16:09.326Z,0
2022-08-08T03:17:41.950Z,0
2022-08-08T03:19:20.429Z,0
2022-08-08T03:20:25.605Z,0
2022-08-08T03:22:01.654Z,0
2022-08-08T03:23:08.211Z,0
2022-08-08T03:24:16.234Z,0
2022-08-08T03:25:38.013Z,0
2022-08-08T03:26:49.247Z,0
2022-08-08T03:28:00.424Z,0
2022-08-08T03:29:57.423Z,0
2022-08-08T03:32:08.861Z,1
2022-08-08T03:34:04.952Z,1
2022-08-08T03:35:18.084Z,1
2022-08-08T03:36:34.178Z,1
2022-08-08T03:39:18.071Z,2
2022-08-08T03:40:37.211Z,2
2022-08-08T03:42:32.276Z,2
2022-08-08T03:43:45.943Z,3
2022-08-08T03:44:56.482Z,3
2022-08-08T03:46:10.849Z,3
2022-08-08T03:47:49.109Z,4
2022-08-08T03:50:04.187Z,4
2022-08-08T03:51:07.665Z,5
2022-08-08T03:52:16.336Z,5
2022-08-08T03:53:50.265Z,5
2022-08-08T03:56:32.559Z,6
2022-08-08T03:58:49.552Z,7
2022-08-08T04:00:20.660Z,7
2022-08-08T04:02:53.776Z,8
2022-08-08T04:04:04.192Z,9
2022-08-08T04:05:22.712Z,9
2022-08-08T04:06:33.797Z,10
2022-08-08T04:08:47.689Z,11
2022-08-08T04:10:12.732Z,11
2022-08-08T04:11:26.920Z,12
2022-08-08T04:13:23.797Z,13
2022-08-08T04:14:37.966Z,14
2022-08-08T04:16:09.915Z,14
2022-08-08T04:18:04.156Z,15
2022-08-08T04:19:37.104Z,16
2022-08-08T04:21:49.406Z,18
2022-08-08T04:23:08.208Z,19
2022-08-08T04:24:32.933Z,20
2022-08-08T04:25:42.134Z,21
2022-08-08T04:27:01.782Z,21
2022-08-08T04:28:46.830Z,22
2022-08-08T04:30:24.197Z,23
2022-08-08T04:32:02.688Z,24
2022-08-08T04:33:16.565Z,25
2022-08-08T04:34:58.630Z,26
2022-08-08T04:36:06.050Z,27
2022-08-08T04:37:09.773Z,27
2022-08-08T04:38:26.394Z,28
2022-08-08T04:40:14.304Z,28
2022-08-08T04:41:24.046Z,29
2022-08-08T04:42:28.056Z,30
2022-08-08T04:43:58.420Z,30
2022-08-08T04:45:02.402Z,31
2022-08-08T04:47:14.360Z,32
2022-08-08T04:48:23.390Z,33
2022-08-08T04:50:32.814Z,33
2022-08-08T04:52:04.745Z,35
2022-08-08T04:54:50.911Z,35
2022-08-08T04:57:02.379Z,37
2022-08-08T04:58:18.391Z,38
2022-08-08T04:59:43.703Z,39
2022-08-08T05:02:04.341Z,40
2022-08-08T05:04:13.407Z,41
2022-08-08T05:05:56.317Z,42
2022-08-08T05:07:16.873Z,43
2022-08-08T05:08:31.197Z,44
2022-08-08T05:09:43.248Z,44
2022-08-08T05:10:47.234Z,45
2022-08-08T05:11:59.227Z,45
2022-08-08T05:13:19.123Z,46
2022-08-08T05:14:25.862Z,46
2022-08-08T05:17:12.050Z,47
2022-08-08T05:18:28.801Z,48
2022-08-08T05:20:16.999Z,49
2022-08-08T05:21:28.196Z,50
2022-08-08T05:23:04.582Z,50
2022-08-08T05:24:11.757Z,50
2022-08-08T05:25:22.351Z,51
2022-08-08T05:26:29.090Z,52
2022-08-08T05:27:47.102Z,52
2022-08-08T05:29:11.486Z,53
2022-08-08T05:32:09.397Z,55
2022-08-08T05:33:19.285Z,56
2022-08-08T05:34:28.160Z,56
2022-08-08T05:35:43.038Z,57
2022-08-08T05:36:50.111Z,58
2022-08-08T05:38:01.508Z,58
2022-08-08T05:39:10.123Z,58
2022-08-08T05:40:27.794Z,59
2022-08-08T05:41:57.097Z,60
2022-08-08T05:44:02.647Z,61
2022-08-08T05:46:08.662Z,62
2022-08-08T05:47:22.682Z,63
2022-08-08T05:48:38.683Z,63
2022-08-08T05:50:00.931Z,64
2022-08-08T05:51:18.555Z,64
2022-08-08T05:52:41.524Z,65
2022-08-08T05:55:10.259Z,66
2022-08-08T05:56:21.238Z,67
2022-08-08T05:58:34.783Z,68
2022-08-08T06:00:27.661Z,69
2022-08-08T06:02:02.235Z,70
2022-08-08T06:04:25.573Z,72
2022-08-08T06:05:37.895Z,72
2022-08-08T06:06:51.289Z,72
2022-08-08T06:08:38.261Z,73
2022-08-08T06:10:25.031Z,74
2022-08-08T06:11:31.058Z,75
2022-08-08T06:12:37.305Z,75
2022-08-08T06:13:51.168Z,76
2022-08-08T06:15:00.211Z,76
2022-08-08T06:16:08.959Z,77
2022-08-08T06:18:22.861Z,77
2022-08-08T06:19:37.144Z,78
2022-08-08T06:20:58.210Z,79
2022-08-08T06:22:35.904Z,80
2022-08-08T06:24:36.624Z,80
2022-08-08T06:26:53.777Z,81
2022-08-08T06:27:58.502Z,83
2022-08-08T06:30:02.763Z,83
2022-08-08T06:31:18.025Z,84
2022-08-08T06:32:30.072Z,85
2022-08-08T06:34:29.567Z,86
2022-08-08T06:36:11.116Z,87
2022-08-08T06:37:45.049Z,88
2022-08-08T06:39:06.919Z,88
2022-08-08T06:40:18.312Z,88
2022-08-08T06:41:29.779Z,89
2022-08-08T06:43:39.472Z,91
2022-08-08T06:44:45.405Z,90
2022-08-08T06:45:51.963Z,91
2022-08-08T06:46:56.158Z,92
2022-08-08T06:48:10.305Z,93
2022-08-08T06:49:16.734Z,93
2022-08-08T06:50:39.989Z,94
2022-08-08T06:51:59.089Z,95
2022-08-08T06:53:21.019Z,96
2022-08-08T06:54:26.902Z,96
2022-08-08T06:56:03.152Z,97
2022-08-08T06:57:16.280Z,97
2022-08-08T06:59:49.151Z,98
2022-08-08T07:02:33.737Z,98
2022-08-08T07:04:55.044Z,99
2022-08-08T07:07:14.074Z,101
2022-08-08T07:08:22.658Z,102
2022-08-08T07:10:02.280Z,102
2022-08-08T07:11:51.905Z,104
2022-08-08T07:12:58.069Z,105
2022-08-08T07:16:10.201Z,109
2022-08-08T07:18:34.811Z,113
2022-08-08T07:19:47.829Z,115
2022-08-08T07:22:21.338Z,118
2022-08-08T07:24:05.142Z,123
2022-08-08T07:25:09.583Z,127
2022-08-08T07:26:32.673Z,127
2022-08-08T07:28:20.149Z,124
2022-08-08T07:30:29.244Z,121
2022-08-08T07:31:37.928Z,119
2022-08-08T07:32:43.190Z,119
2022-08-08T07:34:02.935Z,119
2022-08-08T07:35:18.273Z,119
2022-08-08T07:36:24.886Z,121
2022-08-08T07:38:26.917Z,123
2022-08-08T07:40:03.236Z,123
2022-08-08T07:41:25.810Z,123
2022-08-08T07:42:39.773Z,124
2022-08-08T07:43:54.764Z,124
2022-08-08T07:44:57.631Z,125
2022-08-08T07:46:32.271Z,127
2022-08-08T07:47:52.523Z,127
2022-08-08T07:50:01.398Z,129
2022-08-08T07:51:44.436Z,130
2022-08-08T07:52:58.451Z,130
2022-08-08T07:54:05.569Z,131
2022-08-08T07:55:10.731Z,131
2022-08-08T07:56:36.412Z,132
2022-08-08T07:57:51.917Z,132
2022-08-08T07:58:58.786Z,134
2022-08-08T08:00:03.859Z,133
2022-08-08T08:01:11.693Z,135
2022-08-08T08:02:45.010Z,135
2022-08-08T08:03:57.896Z,137
2022-08-08T08:05:00.797Z,138
2022-08-08T08:07:10.264Z,140
2022-08-08T08:08:21.154Z,142
2022-08-08T08:09:35.851Z,143
2022-08-08T08:10:52.257Z,144
2022-08-08T08:11:59.514Z,145
2022-08-08T08:13:05.274Z,146
2022-08-08T08:14:22.034Z,148
2022-08-08T08:15:25.628Z,149
2022-08-08T08:17:59.004Z,152
2022-08-08T08:20:05.420Z,154
2022-08-08T08:21:44.968Z,156
2022-08-08T08:23:11.818Z,285
2022-08-08T08:26:04.132Z,595
2022-08-08T08:27:11.297Z,246
2022-08-08T08:28:27.037Z,180
2022-08-08T08:30:35.630Z,188
2022-08-08T08:31:59.105Z,206
2022-08-08T08:33:14.407Z,275
2022-08-08T08:34:21.464Z,268
2022-08-08T08:36:29.863Z,280
2022-08-08T08:38:20.768Z,213
2022-08-08T08:40:04.358Z,184
2022-08-08T08:41:31.279Z,187
2022-08-08T08:42:38.260Z,208
2022-08-08T08:43:47.432Z,247
2022-08-08T08:44:52.534Z,290
2022-08-08T08:46:06.737Z,675
2022-08-08T08:47:18.203Z,960
2022-08-08T08:49:44.108Z,958
2022-08-08T08:51:54.041Z,968
2022-08-08T08:54:02.334Z,981
2022-08-08T08:55:12.399Z,983
2022-08-08T08:56:24.761Z,987
2022-08-08T08:57:35.859Z,945
2022-08-08T09:00:20.194Z,872
2022-08-08T09:01:31.114Z,824
2022-08-08T09:02:41.134Z,856
2022-08-08T09:03:53.736Z,919
2022-08-08T09:04:59.459Z,971
2022-08-08T09:06:02.367Z,1013
2022-08-08T09:07:15.376Z,1043
2022-08-08T09:08:24.802Z,1058
2022-08-08T09:09:59.245Z,1065
2022-08-08T09:11:09.746Z,1074
2022-08-08T09:12:15.877Z,1075
2022-08-08T09:13:29.309Z,1067
2022-08-08T09:15:49.955Z,1056
2022-08-08T09:18:00.514Z,1086
2022-08-08T09:19:13.470Z,1137
2022-08-08T09:22:08.515Z,1160
2022-08-08T09:23:41.367Z,1226
2022-08-08T09:24:47.788Z,1213
2022-08-08T09:26:06.769Z,1105
2022-08-08T09:27:58.606Z,848
2022-08-08T09:29:10.692Z,985
2022-08-08T09:30:28.207Z,1181
2022-08-08T09:31:58.943Z,1025
2022-08-08T09:34:38.422Z,890
2022-08-08T09:35:59.426Z,1253
2022-08-08T09:38:18.419Z,404
2022-08-08T09:39:22.378Z,703
2022-08-08T09:41:00.849Z,841
2022-08-08T09:42:27.003Z,662
2022-08-08T09:44:35.186Z,565
2022-08-08T09:46:32.042Z,645
2022-08-08T09:48:50.505Z,418
2022-08-08T09:50:15.391Z,355
2022-08-08T09:51:18.251Z,558
2022-08-08T09:54:09.527Z,366
2022-08-08T09:56:28.525Z,709
2022-08-08T09:58:00.027Z,1037
2022-08-08T10:00:58.163Z,1119
2022-08-08T10:02:17.587Z,1297
2022-08-08T10:03:23.730Z,1042
2022-08-08T10:04:54.709Z,1153
2022-08-08T10:06:03.539Z,1306
2022-08-08T10:07:17.853Z,1178
2022-08-08T10:08:31.569Z,1208
2022-08-08T10:10:08.369Z,1266
2022-08-08T10:13:14.462Z,901
2022-08-08T10:14:44.224Z,958
2022-08-08T10:16:09.587Z,774
2022-08-08T10:18:27.859Z,862
2022-08-08T10:20:04.550Z,638
2022-08-08T10:21:51.849Z,495
2022-08-08T10:22:57.587Z,486
2022-08-08T10:24:03.539Z,424
2022-08-08T10:27:00.786Z,459
2022-08-08T10:28:06.456Z,378
2022-08-08T10:29:38.069Z,359
2022-08-08T10:31:08.509Z,363
2022-08-08T10:32:14.781Z,297
2022-08-08T10:34:22.300Z,290
2022-08-08T10:36:24.600Z,249
2022-08-08T10:37:37.368Z,282
2022-08-08T10:38:47.765Z,327
2022-08-08T10:39:57.171Z,342
2022-08-08T10:42:27.900Z,467
2022-08-08T10:43:40.514Z,427
2022-08-08T10:44:55.919Z,653
2022-08-08T10:46:30.658Z,1010
2022-08-08T10:47:58.085Z,519
2022-08-08T10:50:08.798Z,745
2022-08-08T10:51:11.227Z,506
2022-08-08T10:52:32.006Z,491
2022-08-08T10:54:03.682Z,469
2022-08-08T10:55:12.431Z,804
2022-08-08T10:56:44.297Z,503
2022-08-08T10:57:56.502Z,439
2022-08-08T10:58:59.327Z,453
2022-08-08T11:00:01.944Z,899
2022-08-08T11:01:18.832Z,517
2022-08-08T11:02:31.008Z,504
2022-08-08T11:04:11.956Z,586
2022-08-08T11:05:24.175Z,917
2022-08-08T11:06:27.071Z,1296
2022-08-08T11:08:54.406Z,660
2022-08-08T11:09:59.702Z,792
2022-08-08T11:12:15.579Z,767
2022-08-08T11:13:34.647Z,432
2022-08-08T11:14:47.368Z,755
2022-08-08T11:16:35.383Z,912
2022-08-08T11:18:10.125Z,1000
2022-08-08T11:19:23.446Z,411
2022-08-08T11:21:38.913Z,735
2022-08-08T11:22:42.800Z,364
2022-08-08T11:24:06.049Z,320
2022-08-08T11:25:19.706Z,304
2022-08-08T11:27:20.072Z,444
2022-08-08T11:28:44.889Z,1057
2022-08-08T11:30:32.782Z,882
2022-08-08T11:31:50.909Z,689
2022-08-08T11:32:55.554Z,536
2022-08-08T11:35:43.429Z,821
2022-08-08T11:37:00.034Z,650
2022-08-08T11:38:57.702Z,635
2022-08-08T11:40:04.417Z,443
2022-08-08T11:41:07.158Z,390
2022-08-08T11:43:16.856Z,309
2022-08-08T11:44:31.153Z,280
2022-08-08T11:46:24.833Z,260
2022-08-08T11:48:20.946Z,254
2022-08-08T11:49:32.423Z,246
2022-08-08T11:50:35.466Z,247
2022-08-08T11:51:55.669Z,242
2022-08-08T11:53:06.580Z,227
2022-08-08T11:54:47.315Z,207
2022-08-08T11:55:51.637Z,185
2022-08-08T11:57:16.838Z,172
2022-08-08T11:58:32.690Z,168
2022-08-08T12:00:10.515Z,168
2022-08-08T12:01:23.755Z,169
2022-08-08T12:02:40.434Z,172
2022-08-08T12:03:49.419Z,178
2022-08-08T12:04:52.864Z,182
2022-08-08T12:07:18.595Z,197
2022-08-08T12:08:30.691Z,219
2022-08-08T12:10:13.802Z,249
2022-08-08T12:11:38.125Z,395
2022-08-08T12:12:56.889Z,665
2022-08-08T12:14:12.674Z,1034
2022-08-08T12:15:16.456Z,980
2022-08-08T12:17:28.425Z,716
2022-08-08T12:18:46.648Z,928
2022-08-08T12:19:56.160Z,329
2022-08-08T12:21:01.790Z,874
2022-08-08T12:22:39.647Z,513
2022-08-08T12:24:04.425Z,415
2022-08-08T12:25:12.183Z,251
2022-08-08T12:26:42.371Z,244
2022-08-08T12:27:50.259Z,246
2022-08-08T12:28:57.303Z,914
2022-08-08T12:30:05.437Z,1012
2022-08-08T12:31:55.539Z,750
2022-08-08T12:32:59.481Z,1050
2022-08-08T12:34:09.883Z,1066
2022-08-08T12:35:20.877Z,1058
2022-08-08T12:36:36.941Z,1024
2022-08-08T12:38:03.580Z,996
2022-08-08T12:39:14.039Z,950
2022-08-08T12:40:26.987Z,930
2022-08-08T12:42:21.463Z,953
2022-08-08T12:44:03.596Z,944
2022-08-08T12:46:09.407Z,946
2022-08-08T12:48:36.043Z,931
2022-08-08T12:49:48.746Z,648
2022-08-08T12:50:51.516Z,570
2022-08-08T12:52:02.903Z,607
2022-08-08T12:53:05.325Z,360
2022-08-08T12:54:28.972Z,425
2022-08-08T12:56:27.080Z,773
2022-08-08T12:57:58.182Z,602
2022-08-08T12:59:00.944Z,341
2022-08-08T13:00:39.539Z,317
2022-08-08T13:01:51.904Z,368
2022-08-08T13:03:03.181Z,559
2022-08-08T13:04:07.167Z,357
2022-08-08T13:06:16.528Z,468
2022-08-08T13:08:07.763Z,355
2022-08-08T13:09:13.085Z,541
2022-08-08T13:10:29.583Z,776
2022-08-08T13:12:32.028Z,810
2022-08-08T13:13:42.478Z,865
2022-08-08T13:14:55.452Z,886
2022-08-08T13:15:58.943Z,900
2022-08-08T13:18:28.907Z,413
2022-08-08T13:20:11.228Z,764
2022-08-08T13:21:17.861Z,675
2022-08-08T13:22:27.310Z,751
2022-08-08T13:23:50.374Z,610
2022-08-08T13:25:03.066Z,428
2022-08-08T13:26:19.373Z,742
2022-08-08T13:27:37.735Z,764
2022-08-08T13:28:50.857Z,275
2022-08-08T13:29:55.111Z,297
2022-08-08T13:30:58.577Z,360
2022-08-08T13:32:03.653Z,788
2022-08-08T13:34:40.211Z,354
2022-08-08T13:35:52.133Z,463
2022-08-08T13:37:00.557Z,251
2022-08-08T13:38:15.083Z,249
2022-08-08T13:39:22.963Z,278
2022-08-08T13:40:30.077Z,248
2022-08-08T13:42:02.447Z,262
2022-08-08T13:44:19.827Z,588
2022-08-08T13:46:34.659Z,367
2022-08-08T13:47:37.497Z,492
2022-08-08T13:50:55.362Z,529
2022-08-08T13:52:56.789Z,787
2022-08-08T13:54:04.347Z,785
2022-08-08T13:55:07.909Z,603
2022-08-08T13:58:17.154Z,713
2022-08-08T13:59:24.819Z,298
2022-08-08T14:00:37.933Z,291
2022-08-08T14:02:13.754Z,300
2022-08-08T14:04:01.057Z,293
2022-08-08T14:05:29.261Z,349
2022-08-08T14:08:06.550Z,585
2022-08-08T14:10:40.136Z,399
2022-08-08T14:12:53.359Z,287
2022-08-08T14:14:10.431Z,280
2022-08-08T14:15:21.159Z,312
2022-08-08T14:16:29.175Z,320
2022-08-08T14:18:55.216Z,316
2022-08-08T14:20:59.218Z,260
2022-08-08T14:22:09.232Z,242
2022-08-08T14:24:11.133Z,239
2022-08-08T14:25:27.891Z,253
2022-08-08T14:26:37.636Z,226
2022-08-08T14:28:05.610Z,219
2022-08-08T14:29:41.568Z,216
2022-08-08T14:30:52.235Z,220
2022-08-08T14:32:32.679Z,222
2022-08-08T14:34:47.049Z,234
2022-08-08T14:35:56.168Z,230
2022-08-08T14:36:59.247Z,235
2022-08-08T14:39:01.466Z,257
2022-08-08T14:40:16.639Z,231
2022-08-08T14:41:57.452Z,251
2022-08-08T14:44:33.617Z,247
2022-08-08T14:46:09.958Z,245
2022-08-08T14:47:24.065Z,254
2022-08-08T14:48:42.728Z,274
2022-08-08T14:50:41.311Z,270
2022-08-08T14:51:55.713Z,266
2022-08-08T14:52:58.769Z,275
2022-08-08T14:54:02.535Z,252
2022-08-08T14:56:12.728Z,241
2022-08-08T14:58:19.829Z,204
2022-08-08T15:00:00.073Z,214
2022-08-08T15:01:51.428Z,165
2022-08-08T15:03:19.709Z,151
2022-08-08T15:04:34.156Z,147
2022-08-08T15:06:01.714Z,151
2022-08-08T15:07:41.681Z,149
2022-08-08T15:08:59.654Z,169
2022-08-08T15:10:04.633Z,178
2022-08-08T15:11:21.378Z,200
2022-08-08T15:12:30.565Z,178
2022-08-08T15:14:09.917Z,187
2022-08-08T15:16:05.699Z,181
2022-08-08T15:17:20.440Z,158
2022-08-08T15:18:32.101Z,135
2022-08-08T15:19:34.944Z,152
2022-08-08T15:21:45.848Z,128
2022-08-08T15:22:50.405Z,120
2022-08-08T15:25:17.496Z,121
2022-08-08T15:26:37.810Z,126
2022-08-08T15:28:36.068Z,127
2022-08-08T15:29:44.315Z,154
2022-08-08T15:32:33.875Z,108
2022-08-08T15:34:04.079Z,104
2022-08-08T15:35:08.714Z,108
2022-08-08T15:36:29.000Z,110
2022-08-08T15:37:35.121Z,115
2022-08-08T15:38:51.542Z,120
2022-08-08T15:40:01.383Z,154
2022-08-08T15:42:34.084Z,107
2022-08-08T15:44:04.219Z,125
2022-08-08T15:45:30.404Z,99
2022-08-08T15:46:37.540Z,126
2022-08-08T15:48:16.675Z,122
2022-08-08T15:49:41.381Z,133
2022-08-08T15:50:46.402Z,99
2022-08-08T15:51:56.525Z,101
2022-08-08T15:52:59.347Z,104
2022-08-08T15:55:05.956Z,107
2022-08-08T15:56:21.765Z,122
2022-08-08T15:57:25.160Z,105
2022-08-08T16:00:30.741Z,114
2022-08-08T16:02:03.484Z,112
2022-08-08T16:03:06.709Z,114
2022-08-08T16:04:20.351Z,116
2022-08-08T16:06:04.903Z,121
2022-08-08T16:07:08.580Z,125
2022-08-08T16:08:21.119Z,124
2022-08-08T16:13:53.947Z,124
2022-08-08T16:15:00.760Z,110
2022-08-08T16:16:23.061Z,111
2022-08-08T16:18:14.224Z,107
2022-08-08T16:19:27.496Z,100
2022-08-08T16:20:33.319Z,96
2022-08-08T16:21:55.115Z,96
2022-08-08T16:22:57.976Z,106
2022-08-08T16:25:08.996Z,99
2022-08-08T16:26:37.545Z,98
2022-08-08T16:27:58.853Z,96
2022-08-08T16:29:16.301Z,95
2022-08-08T16:30:42.766Z,93
2022-08-08T16:31:52.323Z,92
2022-08-08T16:32:57.479Z,91
2022-08-08T16:35:08.553Z,88
2022-08-08T16:36:35.483Z,87
2022-08-08T16:37:51.444Z,85
2022-08-08T16:39:00.510Z,82
2022-08-08T16:40:17.703Z,81
2022-08-08T16:41:33.436Z,75
2022-08-08T16:42:42.871Z,71
2022-08-08T16:43:56.131Z,70
2022-08-08T16:46:46.835Z,68
2022-08-08T16:47:49.649Z,65
2022-08-08T16:48:52.543Z,63
2022-08-08T16:49:57.537Z,62
2022-08-08T16:51:11.615Z,60
2022-08-08T16:58:20.857Z,50
2022-08-08T16:59:59.334Z,48
2022-08-08T17:01:11.704Z,46
2022-08-08T17:02:47.344Z,45
2022-08-08T17:04:05.250Z,44
2022-08-08T17:05:08.460Z,44
2022-08-08T17:06:45.422Z,44
2022-08-08T17:07:53.480Z,42
2022-08-08T17:10:01.864Z,40
2022-08-08T17:11:16.209Z,40
2022-08-08T17:12:37.530Z,39
2022-08-08T17:14:03.280Z,38
2022-08-08T17:15:23.848Z,37
2022-08-08T17:16:31.540Z,36
2022-08-08T17:18:18.078Z,36
2022-08-08T17:19:25.063Z,35
2022-08-08T17:20:30.835Z,35
2022-08-08T17:21:36.218Z,35
2022-08-08T17:22:44.200Z,34
2022-08-08T17:25:05.722Z,34
2022-08-08T17:26:30.819Z,34
2022-08-08T17:27:59.076Z,33
2022-08-08T17:29:25.728Z,33
2022-08-08T17:30:30.809Z,32
2022-08-08T17:31:50.946Z,32
2022-08-08T17:36:32.733Z,32
2022-08-08T17:37:39.267Z,30
2022-08-08T17:38:44.778Z,30
2022-08-08T17:40:17.577Z,30
2022-08-08T17:42:02.553Z,29
2022-08-08T17:43:13.056Z,27
2022-08-08T17:44:18.902Z,25
2022-08-08T17:45:37.026Z,24
2022-08-08T17:46:41.145Z,23
2022-08-08T17:47:55.110Z,22
2022-08-08T17:49:00.096Z,21
2022-08-08T17:51:18.488Z,20
2022-08-08T17:52:26.522Z,19
2022-08-08T17:54:04.903Z,19
2022-08-08T17:56:12.527Z,18
2022-08-08T17:57:16.443Z,17
2022-08-08T17:58:27.817Z,16
2022-08-08T17:59:58.651Z,16
2022-08-08T18:01:11.326Z,15
2022-08-08T18:02:30.947Z,15
2022-08-08T18:03:36.679Z,15
2022-08-08T18:04:53.316Z,15
2022-08-08T18:06:59.535Z,14
2022-08-08T18:08:06.261Z,14
2022-08-08T18:09:14.955Z,13
2022-08-08T18:10:19.310Z,13
2022-08-08T18:12:26.486Z,12
2022-08-08T18:13:43.923Z,11
2022-08-08T18:14:50.854Z,11
2022-08-08T18:16:07.377Z,10
2022-08-08T18:18:42.548Z,10
2022-08-08T18:22:02.630Z,9
2022-08-08T18:24:00.200Z,8
2022-08-08T18:26:11.828Z,7
2022-08-08T18:27:20.165Z,7
2022-08-08T18:28:27.683Z,7
2022-08-08T18:29:58.264Z,6
2022-08-08T18:31:13.401Z,6
2022-08-08T18:34:29.333Z,6
2022-08-08T18:35:51.638Z,5
2022-08-08T18:37:48.842Z,5
2022-08-08T18:38:53.749Z,4
2022-08-08T18:39:57.113Z,4
2022-08-08T18:41:05.407Z,4
2022-08-08T18:42:18.794Z,3
2022-08-08T18:43:43.784Z,3
2022-08-08T18:45:00.078Z,3
2022-08-08T18:50:02.389Z,2
2022-08-08T18:51:56.276Z,2
2022-08-08T18:52:59.836Z,2
2022-08-08T18:54:32.105Z,2
2022-08-08T18:55:36.053Z,1
2022-08-08T18:57:47.904Z,1
2022-08-08T18:58:52.665Z,1
2022-08-08T18:59:54.757Z,1
2022-08-08T19:02:31.881Z,1
2022-08-08T19:04:19.276Z,0
2022-08-08T19:05:32.526Z,0
2022-08-08T19:06:56.666Z,0
2022-08-08T19:08:04.920Z,0
2022-08-08T19:09:48.714Z,0
2022-08-08T19:11:28.812Z,0
2022-08-08T19:12:54.418Z,0
2022-08-08T19:15:02.220Z,0
2022-08-08T19:16:28.328Z,0
2022-08-08T19:19:14.744Z,0
2022-08-08T19:20:23.143Z,0
2022-08-08T19:21:52.333Z,0
2022-08-08T19:22:58.955Z,0
2022-08-08T19:26:32.625Z,0
2022-08-08T19:28:19.512Z,0
2022-08-08T19:29:24.749Z,0
2022-08-08T19:30:28.841Z,0
2022-08-08T19:31:37.865Z,0
2022-08-08T19:32:41.994Z,0
2022-08-08T19:34:42.718Z,0
2022-08-08T19:36:15.321Z,0
2022-08-08T19:37:58.337Z,0
2022-08-08T19:39:10.815Z,0
2022-08-08T19:40:33.040Z,0
2022-08-08T19:41:36.802Z,0
2022-08-08T19:44:51.758Z,0
2022-08-08T19:46:26.032Z,0
2022-08-08T19:47:41.668Z,0
2022-08-08T19:48:44.855Z,0
2022-08-08T19:50:04.542Z,0
2022-08-08T19:51:41.387Z,0
2022-08-08T19:53:02.022Z,0
2022-08-08T19:54:04.598Z,0
2022-08-08T19:56:41.149Z,0
2022-08-08T19:57:53.213Z,0
2022-08-08T19:58:59.341Z,0
2022-08-08T20:02:04.177Z,0
2022-08-08T20:04:04.383Z,0
2022-08-08T20:06:18.942Z,0
2022-08-08T20:08:33.494Z,0
2022-08-08T20:09:59.935Z,0
2022-08-08T20:11:03.410Z,0
2022-08-08T20:12:14.718Z,0
2022-08-08T20:14:54.175Z,0
2022-08-08T20:16:05.636Z,0
2022-08-08T20:17:29.679Z,0
2022-08-08T20:18:55.385Z,0
2022-08-08T20:20:02.703Z,0
2022-08-08T20:22:34.832Z,0
2022-08-08T20:23:43.797Z,0
2022-08-08T20:24:47.317Z,0
2022-08-08T20:27:01.017Z,0
2022-08-08T20:28:33.714Z,0
2022-08-08T20:30:03.108Z,0
2022-08-08T20:31:19.476Z,0
2022-08-08T20:32:28.948Z,0
2022-08-08T20:34:36.455Z,0
2022-08-08T20:36:23.188Z,0
2022-08-08T20:37:56.289Z,0
2022-08-08T20:40:05.481Z,0
2022-08-08T20:41:20.673Z,0
2022-08-08T20:42:31.080Z,0
2022-08-08T20:43:52.854Z,0
2022-08-08T20:44:58.271Z,0
2022-08-08T20:46:11.123Z,0
2022-08-08T20:47:40.204Z,0
2022-08-08T20:48:48.060Z,0
2022-08-08T20:49:58.799Z,0
2022-08-08T20:51:03.206Z,0
2022-08-08T20:54:28.976Z,0
2022-08-08T20:55:52.743Z,0
2022-08-08T20:57:28.534Z,0
2022-08-08T20:58:32.923Z,0
2022-08-08T20:59:47.392Z,0
2022-08-08T21:00:51.373Z,0
2022-08-08T21:02:28.546Z,0
2022-08-08T21:04:03.134Z,0
2022-08-08T21:05:11.204Z,0
2022-08-08T21:06:16.839Z,0
2022-08-08T21:08:52.984Z,0
2022-08-08T21:10:16.101Z,0
2022-08-08T21:12:04.833Z,0
2022-08-08T21:13:14.743Z,0
2022-08-08T21:14:35.088Z,0
2022-08-08T21:16:30.623Z,0
2022-08-08T21:18:46.075Z,0
2022-08-08T21:19:49.527Z,0
2022-08-08T21:21:03.919Z,0
2022-08-08T21:22:11.194Z,0
2022-08-08T21:24:30.667Z,0
2022-08-08T21:25:40.796Z,0
2022-08-08T21:26:51.510Z,0
2022-08-08T21:28:39.249Z,0
2022-08-08T21:30:25.599Z,0
2022-08-08T21:32:01.212Z,0
2022-08-08T21:33:13.494Z,0
2022-08-08T21:34:20.191Z,0
2022-08-08T21:36:30.040Z,0
2022-08-08T21:38:18.328Z,0
2022-08-08T21:40:08.385Z,0
2022-08-08T21:42:01.017Z,0
2022-08-08T21:43:06.594Z,0
2022-08-08T21:48:54.739Z,0
2022-08-08T21:50:00.367Z,0
2022-08-08T21:51:10.760Z,0
2022-08-08T21:56:40.236Z,0
2022-08-08T21:58:17.354Z,0
2022-08-08T22:00:14.136Z,0
2022-08-08T22:01:57.959Z,0
2022-08-08T22:03:18.836Z,0
2022-08-08T22:04:26.052Z,0
2022-08-08T22:05:42.389Z,0
2022-08-08T22:06:45.801Z,0
2022-08-08T22:08:54.215Z,0
2022-08-08T22:11:51.948Z,0
2022-08-08T22:13:43.339Z,0
2022-08-08T22:16:03.510Z,0
2022-08-08T22:17:13.868Z,0
2022-08-08T22:18:18.587Z,0
2022-08-08T22:20:28.244Z,0
2022-08-08T22:21:36.396Z,0